Time;durP1;ratioP1;P1;durP2;ratioP2;P2;SDS_P1;SDS_P2;PMS_P1;PMS_P2;Temp;Humidity;BMP_temperature;BMP_pressure;BME280_temperature;BME280_humidity;BME280_pressure;Samples;Min_cycle;Max_cycle;Signal;HPM_P1;HPM_P2
2022/09/23 00:01:07;;;;;;;11.08;7.47;;;;;;;9.03;100.00;99870.41;1742572;82;21614;-67
2022/09/23 00:03:37;;;;;;;9.43;6.28;;;;;;;9.03;100.00;99869.56;1742478;82;21039;-66
2022/09/23 00:06:09;;;;;;;8.63;6.35;;;;;;;9.04;100.00;99864.70;1742652;82;21051;-66
2022/09/23 00:08:36;;;;;;;13.72;7.78;;;;;;;9.05;100.00;99868.20;1742613;82;21130;-66
2022/09/23 00:11:09;;;;;;;7.03;5.40;;;;;;;9.07;100.00;99863.77;1742639;82;21044;-66
2022/09/23 00:13:36;;;;;;;10.08;6.85;;;;;;;9.09;100.00;99872.42;1742420;80;21095;-65
2022/09/23 00:16:07;;;;;;;9.03;7.40;;;;;;;9.08;100.00;99870.72;1742392;82;21087;-67
2022/09/23 00:18:34;;;;;;;19.13;7.70;;;;;;;9.09;100.00;99867.16;1742320;81;21056;-67
2022/09/23 00:21:05;;;;;;;10.18;6.87;;;;;;;9.08;100.00;99862.38;1742450;82;21034;-67
2022/09/23 00:23:31;;;;;;;11.28;7.83;;;;;;;9.09;100.00;99861.91;1742656;82;21070;-65
2022/09/23 00:26:00;;;;;;;9.55;7.17;;;;;;;9.11;100.00;99864.03;1742498;82;22294;-66
2022/09/23 00:28:26;;;;;;;12.78;7.92;;;;;;;9.14;100.00;99861.31;1742832;82;21087;-66
2022/09/23 00:30:53;;;;;;;12.23;7.62;;;;;;;9.13;100.00;99858.27;1742888;82;21055;-66
2022/09/23 00:33:22;;;;;;;9.90;7.30;;;;;;;9.15;100.00;99859.08;1742424;81;21550;-65
2022/09/23 00:35:48;;;;;;;7.85;7.03;;;;;;;9.14;100.00;99858.69;1742666;82;21100;-65
2022/09/23 00:38:16;;;;;;;10.15;7.25;;;;;;;9.15;100.00;99855.98;1742420;82;21135;-66
2022/09/23 00:40:46;;;;;;;12.43;8.13;;;;;;;9.16;100.00;99861.66;1742394;82;21069;-67
2022/09/23 00:43:13;;;;;;;10.48;7.80;;;;;;;9.18;100.00;99862.93;1742553;82;21071;-66
2022/09/23 00:45:41;;;;;;;9.58;6.60;;;;;;;9.19;100.00;99851.49;1742249;82;21059;-65
2022/09/23 00:48:09;;;;;;;9.83;7.30;;;;;;;9.21;100.00;99848.36;1742229;82;21519;-66
2022/09/23 00:50:39;;;;;;;8.98;7.00;;;;;;;9.20;100.00;99844.00;1742113;82;21117;-66
2022/09/23 00:53:10;;;;;;;8.18;6.85;;;;;;;9.22;100.00;99854.00;1742547;82;21100;-67
2022/09/23 00:55:45;;;;;;;9.60;5.85;;;;;;;9.21;100.00;99849.67;1719150;82;21087;-67
2022/09/23 00:58:13;;;;;;;9.33;6.95;;;;;;;9.21;100.00;99847.05;1701689;84;21087;-67
2022/09/23 01:00:41;;;;;;;8.93;7.55;;;;;;;9.22;100.00;99847.43;1713491;82;21074;-66
2022/09/23 01:03:10;;;;;;;10.10;8.13;;;;;;;9.22;100.00;99846.12;1742526;82;21251;-66
2022/09/23 01:05:38;;;;;;;13.90;8.20;;;;;;;9.22;100.00;99847.00;1742778;82;21044;-66
2022/09/23 01:08:08;;;;;;;11.22;8.45;;;;;;;9.24;100.00;99846.92;1742711;82;21529;-66
2022/09/23 01:11:00;;;;;;;14.58;8.83;;;;;;;9.23;100.00;99839.97;1742889;82;21096;-64
2022/09/23 01:13:41;;;;;;;8.50;7.17;;;;;;;9.25;100.00;99849.97;1742705;82;21533;-65
2022/09/23 01:16:10;;;;;;;;;;;;;;;9.27;100.00;99849.89;1745506;82;21098;-66
2022/09/23 01:19:00;;;;;;;10.58;7.50;;;;;;;9.27;100.00;99850.77;1741879;82;20198;-66
2022/09/23 01:22:03;;;;;;;11.70;8.33;;;;;;;9.26;100.00;99850.82;1742786;82;21058;-66
2022/09/23 01:25:00;;;;;;;11.43;7.85;;;;;;;9.24;100.00;99849.55;1742562;82;21053;-66
2022/09/23 01:28:24;;;;;;;11.45;8.15;;;;;;;9.24;100.00;99844.30;1742738;82;21062;-67
2022/09/23 01:31:08;;;;;;;10.82;7.97;;;;;;;9.24;100.00;99842.98;1742618;82;21244;-65
2022/09/23 01:33:54;;;;;;;13.15;8.68;;;;;;;9.22;100.00;99850.06;1742292;80;21085;-66
2022/09/23 01:36:28;;;;;;;15.00;8.85;;;;;;;9.21;100.00;99850.98;1740818;82;21085;-66
2022/09/23 01:39:09;;;;;;;11.95;8.78;;;;;;;9.20;100.00;99849.25;1742827;82;21014;-65
2022/09/23 01:41:57;;;;;;;9.95;7.25;;;;;;;9.21;100.00;99843.95;1742239;82;21065;-66
2022/09/23 01:44:33;;;;;;;8.80;7.12;;;;;;;9.22;100.00;99841.75;1742379;82;21187;-66
2022/09/23 01:47:13;;;;;;;10.35;7.75;;;;;;;9.25;100.00;99844.72;1742166;82;21101;-64
2022/09/23 01:49:55;;;;;;;13.30;8.73;;;;;;;9.24;100.00;99841.67;1742629;82;21520;-65
2022/09/23 01:52:41;;;;;;;11.33;8.10;;;;;;;9.27;100.00;99840.70;1742564;82;21022;-66
2022/09/23 01:55:18;;;;;;;13.18;9.35;;;;;;;9.29;100.00;99841.04;1721613;82;21069;-66
2022/09/23 01:57:56;;;;;;;11.33;8.33;;;;;;;9.30;100.00;99837.52;1742678;82;21111;-66
2022/09/23 02:00:23;;;;;;;11.70;7.67;;;;;;;9.30;100.00;99838.83;1742613;82;21002;-65
2022/09/23 02:02:56;;;;;;;9.00;6.90;;;;;;;9.30;100.00;99838.83;1742502;82;21025;-65
2022/09/23 02:05:45;;;;;;;11.25;8.78;;;;;;;9.30;100.00;99836.20;1742880;82;21608;-67
2022/09/23 02:08:30;;;;;;;9.93;7.63;;;;;;;9.32;100.00;99836.16;1746051;82;21045;-66
2022/09/23 02:11:08;;;;;;;11.35;8.03;;;;;;;9.31;100.00;99831.33;1742284;82;21085;-67
2022/09/23 02:14:00;;;;;;;10.45;8.20;;;;;;;9.30;100.00;99836.20;1742554;81;21120;-67
2022/09/23 02:16:39;;;;;;;11.60;8.05;;;;;;;9.32;100.00;99835.69;1742593;82;21061;-66
2022/09/23 02:19:17;;;;;;;12.73;9.25;;;;;;;9.33;100.00;99833.45;1721575;82;21034;-66
2022/09/23 02:21:48;;;;;;;8.38;6.90;;;;;;;9.35;100.00;99833.41;1735368;82;21108;-67
2022/09/23 02:24:18;;;;;;;12.85;8.03;;;;;;;9.36;100.00;99828.10;1743427;82;21053;-67
2022/09/23 02:27:17;;;;;;;8.68;6.30;;;;;;;9.36;100.00;99824.59;1742998;82;23227;-68
2022/09/23 02:29:58;;;;;;;12.40;8.80;;;;;;;9.38;100.00;99828.88;1742644;82;21073;-67
2022/09/23 02:32:34;;;;;;;13.10;9.13;;;;;;;9.37;100.00;99827.64;1742443;80;21565;-66
2022/09/23 02:35:25;;;;;;;12.18;8.80;;;;;;;9.38;100.00;99822.77;1742125;82;21053;-66
2022/09/23 02:38:10;;;;;;;8.15;6.58;;;;;;;9.39;100.00;99822.72;1742540;82;21719;-67
2022/09/23 02:40:53;;;;;;;10.95;8.08;;;;;;;9.41;100.00;99823.53;1742428;82;21541;-67
2022/09/23 02:43:34;;;;;;;10.63;8.53;;;;;;;9.42;100.00;99822.59;1742385;82;21108;-67
2022/09/23 02:46:02;;;;;;;13.05;9.08;;;;;;;9.42;100.00;99823.91;1742183;82;21053;-67
2022/09/23 02:48:40;;;;;;;12.05;7.78;;;;;;;9.42;100.00;99819.97;1742469;82;21066;-68
2022/09/23 02:51:08;;;;;;;10.53;8.20;;;;;;;9.43;100.00;99822.14;1742595;82;21310;-66
2022/09/23 02:53:35;;;;;;;10.25;8.58;;;;;;;9.42;100.00;99825.23;1742543;82;20986;-65
2022/09/23 02:56:13;;;;;;;11.28;8.48;;;;;;;9.42;100.00;99825.23;1742285;82;21545;-66
2022/09/23 02:58:40;;;;;;;12.78;8.83;;;;;;;9.42;100.00;99824.38;1742495;82;21037;-66
2022/09/23 03:01:30;;;;;;;10.13;8.08;;;;;;;9.43;100.00;99830.02;1742686;82;21073;-66
2022/09/23 03:04:20;;;;;;;11.55;9.03;;;;;;;9.42;100.00;99827.86;1710657;82;21259;-66
2022/09/23 03:07:10;;;;;;;14.47;9.58;;;;;;;9.42;100.00;99827.86;1742820;82;21656;-65
2022/09/23 03:09:57;;;;;;;13.18;8.53;;;;;;;9.44;100.00;99827.34;1742722;82;21069;-68
2022/09/23 03:12:35;;;;;;;13.32;9.08;;;;;;;9.42;100.00;99819.13;1734993;82;21038;-66
2022/09/23 03:15:19;;;;;;;9.45;7.80;;;;;;;9.41;100.00;99823.53;1742074;81;21608;-66
2022/09/23 03:18:17;;;;;;;10.72;7.33;;;;;;;9.41;100.00;99824.84;1742540;82;21948;-66
2022/09/23 03:21:07;;;;;;;12.68;9.05;;;;;;;9.39;100.00;99824.04;1742683;82;21022;-66
2022/09/23 03:23:36;;;;;;;13.08;9.10;;;;;;;9.41;100.00;99829.25;1742605;82;21557;-66
2022/09/23 03:26:17;;;;;;;13.55;10.25;;;;;;;9.39;100.00;99824.04;1742679;82;21058;-67
2022/09/23 03:28:43;;;;;;;13.38;9.68;;;;;;;9.39;100.00;99828.45;1742811;82;21054;-66
2022/09/23 03:31:12;;;;;;;12.75;8.93;;;;;;;9.37;100.00;99831.58;1720807;82;21545;-66
2022/09/23 03:33:47;;;;;;;11.97;8.70;;;;;;;9.36;100.00;99833.36;1742516;82;21546;-66
2022/09/23 03:39:07;;;;;;;10.40;8.10;;;;;;;9.35;100.00;99826.84;1742745;82;21104;-68
2022/09/23 03:41:42;;;;;;;14.45;10.10;;;;;;;9.34;100.00;99831.24;1742699;82;21107;-66
2022/09/23 03:44:09;;;;;;;14.07;9.03;;;;;;;9.32;100.00;99826.49;1706267;83;21171;-67
2022/09/23 03:46:36;;;;;;;13.40;10.23;;;;;;;9.31;100.00;99822.14;1742463;82;21660;-67
2022/09/23 03:49:18;;;;;;;11.57;9.83;;;;;;;9.30;100.00;99825.69;1710675;83;21046;-67
2022/09/23 03:51:45;;;;;;;13.60;9.63;;;;;;;9.31;100.00;99826.54;1741649;82;21136;-67
2022/09/23 03:54:11;;;;;;;12.58;9.40;;;;;;;9.30;100.00;99828.31;1742975;82;21061;-65
2022/09/23 03:56:39;;;;;;;12.00;8.78;;;;;;;9.29;100.00;99823.95;1713237;83;21235;-67
2022/09/23 03:59:07;;;;;;;11.55;9.68;;;;;;;9.28;100.00;99824.88;1733400;82;21097;-66
2022/09/23 04:01:33;;;;;;;11.80;8.83;;;;;;;9.28;100.00;99824.88;1742684;82;21045;-67
2022/09/23 04:04:00;;;;;;;12.73;9.08;;;;;;;9.24;100.00;99825.44;1742553;82;21018;-68
2022/09/23 04:06:27;;;;;;;10.72;8.45;;;;;;;9.25;100.00;99827.63;1742732;82;21125;-66
2022/09/23 04:08:53;;;;;;;10.60;8.05;;;;;;;9.25;100.00;99835.52;1742485;82;21537;-67
2022/09/23 04:11:20;;;;;;;10.20;8.23;;;;;;;9.26;100.00;99829.34;1742805;82;21045;-66
2022/09/23 04:13:46;;;;;;;13.05;9.63;;;;;;;9.27;100.00;99832.38;1742396;81;21184;-67
2022/09/23 04:16:13;;;;;;;10.40;8.48;;;;;;;9.29;100.00;99836.25;1742350;82;21061;-67
2022/09/23 04:18:40;;;;;;;11.83;9.70;;;;;;;9.30;100.00;99840.14;1742632;82;21174;-67
2022/09/23 04:21:07;;;;;;;11.05;8.10;;;;;;;9.30;100.00;99836.20;1742506;82;21743;-65
2022/09/23 04:23:33;;;;;;;14.90;9.40;;;;;;;9.31;100.00;99833.11;1742515;82;21517;-65
2022/09/23 04:26:00;;;;;;;18.07;10.75;;;;;;;9.30;100.00;99837.52;1742671;82;21018;-65
2022/09/23 04:28:26;;;;;;;12.90;9.75;;;;;;;9.31;100.00;99837.91;1742958;82;21402;-67
2022/09/23 04:30:53;;;;;;;12.35;10.18;;;;;;;9.31;100.00;99835.27;1742548;82;21058;-65
2022/09/23 04:33:20;;;;;;;13.60;9.98;;;;;;;9.34;100.00;99837.81;1742504;80;21143;-67
2022/09/23 04:35:51;;;;;;;13.08;10.25;;;;;;;9.36;100.00;99841.25;1742366;82;21084;-67
2022/09/23 04:38:17;;;;;;;;;;;;;;;9.36;100.00;99838.62;1744496;82;21077;-67
2022/09/23 04:40:43;;;;;;;14.43;10.13;;;;;;;9.39;100.00;99843.75;1742465;82;20198;-68
2022/09/23 04:43:10;;;;;;;16.37;10.93;;;;;;;9.41;100.00;99845.87;1742845;82;21048;-67
2022/09/23 04:45:37;;;;;;;13.08;10.18;;;;;;;9.44;100.00;99851.47;1745823;82;21260;-67
2022/09/23 04:48:03;;;;;;;14.87;10.48;;;;;;;9.44;100.00;99841.80;1750555;82;21002;-67
2022/09/23 04:50:32;;;;;;;16.35;10.00;;;;;;;9.45;100.00;99844.84;1750550;82;21017;-67
2022/09/23 04:52:59;;;;;;;13.08;8.90;;;;;;;9.45;100.00;99848.80;1750160;82;21033;-67
2022/09/23 04:55:25;;;;;;;14.50;9.95;;;;;;;9.47;100.00;99850.48;1744057;82;21081;-67
2022/09/23 04:57:52;;;;;;;9.43;7.45;;;;;;;9.49;100.00;99848.67;1738317;82;21821;-67
2022/09/23 05:00:18;;;;;;;9.18;7.15;;;;;;;9.51;100.00;99845.06;1738395;82;21530;-66
2022/09/23 05:02:48;;;;;;;13.88;9.45;;;;;;;9.55;100.00;99852.39;1737819;82;21021;-68
2022/09/23 05:05:19;;;;;;;12.58;9.00;;;;;;;9.57;100.00;99849.22;1738360;82;21933;-67
2022/09/23 05:07:44;;;;;;;11.97;8.65;;;;;;;9.58;100.00;99843.92;1737827;82;21049;-66
2022/09/23 05:10:10;;;;;;;12.05;8.05;;;;;;;9.60;100.00;99847.81;1738420;82;21198;-69
2022/09/23 05:12:40;;;;;;;14.73;10.45;;;;;;;9.62;100.00;99843.36;1737988;82;21089;-67
2022/09/23 05:15:07;;;;;;;13.40;9.85;;;;;;;9.65;100.00;99849.80;1738149;82;21169;-68
2022/09/23 05:17:36;;;;;;;13.13;9.75;;;;;;;9.64;100.00;99843.70;1738295;82;21068;-67
2022/09/23 05:20:02;;;;;;;13.00;9.98;;;;;;;9.64;100.00;99841.06;1738449;82;21562;-66
2022/09/23 05:22:29;;;;;;;15.85;10.50;;;;;;;9.67;100.00;99845.34;1738200;82;21176;-67
2022/09/23 05:24:58;;;;;;;16.70;10.48;;;;;;;9.69;100.00;99848.78;1735779;82;21097;-68
2022/09/23 05:27:24;;;;;;;13.08;10.48;;;;;;;9.70;100.00;99844.38;1738354;82;21010;-67
2022/09/23 05:29:51;;;;;;;20.17;10.45;;;;;;;9.71;100.00;99844.33;1738444;82;21065;-66
2022/09/23 05:32:19;;;;;;;15.50;10.03;;;;;;;9.73;100.00;99839.87;1738039;82;21065;-66
2022/09/23 05:34:46;;;;;;;14.93;11.08;;;;;;;9.73;100.00;99845.12;1739742;82;21209;-67
2022/09/23 05:37:14;;;;;;;16.12;10.55;;;;;;;9.75;100.00;99841.95;1750371;82;21030;-66
2022/09/23 05:39:41;;;;;;;17.12;11.63;;;;;;;9.75;100.00;99838.01;1750599;82;21017;-68
2022/09/23 05:42:08;;;;;;;15.10;10.93;;;;;;;9.80;100.00;99846.60;1750397;82;21528;-66
2022/09/23 05:44:35;;;;;;;12.80;8.75;;;;;;;9.83;100.00;99847.79;1750414;82;21085;-68
2022/09/23 05:47:01;;;;;;;16.95;10.08;;;;;;;9.85;100.00;99844.65;1750317;82;21099;-67
2022/09/23 05:49:28;;;;;;;11.93;9.33;;;;;;;9.88;100.00;99843.67;1750395;82;21497;-68
2022/09/23 05:51:55;;;;;;;14.78;9.88;;;;;;;9.86;100.00;99841.08;1750287;82;21096;-67
2022/09/23 05:54:22;;;;;;;14.68;9.55;;;;;;;9.90;100.00;99843.62;1749669;82;21065;-66
2022/09/23 05:59:32;;;;;;;18.87;11.90;;;;;;;9.88;100.00;99845.83;1814286;79;27995;-67
2022/09/23 06:02:00;;;;;;;15.88;10.08;;;;;;;9.83;100.00;99852.20;1787400;80;21581;-66
2022/09/23 06:04:27;;;;;;;16.75;11.43;;;;;;;9.90;100.00;99842.30;1787486;80;21128;-67
2022/09/23 06:06:54;;;;;;;18.10;12.60;;;;;;;9.95;100.00;99846.92;1787413;80;20980;-66
2022/09/23 06:09:22;;;;;;;21.68;13.40;;;;;;;9.96;100.00;99845.55;1732553;80;21510;-68
2022/09/23 06:11:50;;;;;;;17.15;11.95;;;;;;;9.97;100.00;99850.35;1787482;80;21008;-69
2022/09/23 06:14:17;;;;;;;15.88;11.63;;;;;;;10.03;100.00;99844.83;1786584;80;21095;-68
2022/09/23 06:16:46;;;;;;;15.90;10.38;;;;;;;10.06;100.00;99849.98;1785162;80;21232;-67
2022/09/23 06:19:12;;;;;;;16.40;11.10;;;;;;;10.10;100.00;99855.53;1785573;80;21516;-67
2022/09/23 06:21:40;;;;;;;15.43;10.00;;;;;;;10.15;100.00;99852.26;1785155;80;21020;-67
2022/09/23 06:24:08;;;;;;;15.80;10.93;;;;;;;10.18;100.00;99857.86;1785412;80;21076;-68
2022/09/23 06:26:36;;;;;;;12.70;9.90;;;;;;;10.19;100.00;99860.44;1785363;80;21497;-68
2022/09/23 06:29:10;;;;;;;16.02;10.55;;;;;;;10.20;100.00;99860.82;1785250;80;21207;-67
2022/09/23 06:31:40;;;;;;;14.68;10.10;;;;;;;10.25;100.00;99863.27;1785134;80;21056;-67
2022/09/23 06:34:11;;;;;;;16.97;9.58;;;;;;;10.28;100.00;99864.45;1785287;80;21048;-66
2022/09/23 06:36:38;;;;;;;13.15;9.18;;;;;;;10.33;100.00;99862.98;1785232;80;21029;-69
2022/09/23 06:39:04;;;;;;;10.95;8.38;;;;;;;10.37;100.00;99858.00;1785174;80;21040;-66
2022/09/23 06:41:31;;;;;;;10.45;8.40;;;;;;;10.38;100.00;99863.68;1785160;80;21527;-68
2022/09/23 06:43:58;;;;;;;11.25;7.28;;;;;;;10.39;100.00;99859.65;1784928;80;20997;-67
2022/09/23 06:46:24;;;;;;;10.72;8.03;;;;;;;10.39;100.00;99860.96;1785297;80;21102;-68
2022/09/23 06:48:51;;;;;;;12.30;8.33;;;;;;;10.36;100.00;99861.56;1785471;80;21028;-67
2022/09/23 06:51:21;;;;;;;10.30;7.85;;;;;;;10.34;100.00;99862.93;1784873;80;21112;-67
2022/09/23 06:53:49;;;;;;;10.93;8.68;;;;;;;10.35;100.00;99863.78;1784358;80;21871;-68
2022/09/23 06:56:18;;;;;;;11.33;7.53;;;;;;;10.34;100.00;99866.03;1785603;80;21032;-67
2022/09/23 06:58:45;;;;;;;9.85;7.58;;;;;;;10.28;100.00;99860.10;1777839;80;21041;-68
2022/09/23 07:01:15;;;;;;;11.22;7.15;;;;;;;10.28;100.00;99862.73;1771505;81;21033;-68
2022/09/23 07:03:44;;;;;;;10.18;6.75;;;;;;;10.29;100.00;99860.48;1771595;80;21047;-69
2022/09/23 07:06:11;;;;;;;8.60;6.25;;;;;;;10.32;100.00;99859.97;1771319;80;21904;-67
2022/09/23 07:08:39;;;;;;;8.03;5.62;;;;;;;10.31;100.00;99859.55;1771288;80;21001;-67
2022/09/23 07:11:06;;;;;;;9.55;5.97;;;;;;;10.29;100.00;99859.17;1770732;81;21045;-68
2022/09/23 07:13:33;;;;;;;7.87;5.28;;;;;;;10.28;100.00;99857.47;1770865;80;20974;-69
2022/09/23 07:16:00;;;;;;;7.72;5.97;;;;;;;10.26;100.00;99855.33;1770766;81;21569;-70
2022/09/23 07:18:30;;;;;;;6.83;5.75;;;;;;;10.20;100.00;99855.55;1770990;81;21040;-69
2022/09/23 07:20:57;;;;;;;7.80;5.60;;;;;;;10.19;100.00;99858.23;1749347;81;21363;-68
2022/09/23 07:23:24;;;;;;;7.87;5.40;;;;;;;10.20;100.00;99857.34;1701073;81;21068;-68
2022/09/23 07:25:52;;;;;;;11.18;5.78;;;;;;;10.20;100.00;99845.03;1771140;80;21068;-66
2022/09/23 07:28:19;;;;;;;8.28;5.78;;;;;;;10.22;100.00;99848.46;1771216;80;21041;-68
2022/09/23 07:30:46;;;;;;;8.53;5.75;;;;;;;10.29;100.00;99849.11;1770830;81;21187;-69
2022/09/23 07:33:13;;;;;;;5.53;4.97;;;;;;;10.35;100.00;99850.63;1770945;81;21029;-68
2022/09/23 07:35:41;;;;;;;7.87;5.12;;;;;;;10.42;100.00;99851.64;1770869;80;21068;-67
2022/09/23 07:38:09;;;;;;;11.48;5.60;;;;;;;10.51;100.00;99847.75;1770618;81;21034;-67
2022/09/23 07:40:37;;;;;;;7.30;5.20;;;;;;;10.58;100.00;99842.66;1770832;81;21068;-67
2022/09/23 07:43:06;;;;;;;9.30;5.12;;;;;;;10.66;100.00;99851.08;1770758;80;22079;-68
2022/09/23 07:45:33;;;;;;;11.85;5.75;;;;;;;10.75;100.00;99846.36;1770786;80;21342;-68
2022/09/23 07:48:00;;;;;;;8.43;4.87;;;;;;;10.82;100.00;99838.59;1770698;81;21037;-67
2022/09/23 07:50:31;;;;;;;6.83;4.75;;;;;;;10.92;100.00;99833.30;1771186;81;21036;-68
2022/09/23 07:52:56;;;;;;;8.13;4.90;;;;;;;10.99;100.00;99838.70;1770642;80;21037;-68
2022/09/23 07:55:22;;;;;;;4.78;3.85;;;;;;;11.08;100.00;99826.44;1756151;81;21213;-68
2022/09/23 07:57:49;;;;;;;3.77;3.33;;;;;;;11.18;100.00;99831.31;1740648;82;21573;-68
2022/09/23 08:00:15;;;;;;;4.92;3.37;;;;;;;11.25;100.00;99828.79;1745711;82;22123;-68
2022/09/23 08:02:43;;;;;;;5.00;3.98;;;;;;;11.32;100.00;99823.67;1745655;82;21489;-69
2022/09/23 08:05:09;;;;;;;3.67;3.15;;;;;;;11.40;100.00;99822.84;1745761;82;21040;-69
2022/09/23 08:07:37;;;;;;;4.10;3.47;;;;;;;11.47;100.00;99822.95;1745747;82;21629;-68
2022/09/23 08:10:06;;;;;;;4.78;3.80;;;;;;;11.57;100.00;99826.02;1745778;82;21005;-68
2022/09/23 08:12:33;;;;;;;6.67;3.87;;;;;;;11.63;100.00;99827.53;1746241;82;21053;-68
2022/09/23 08:15:01;;;;;;;5.97;3.95;;;;;;;11.74;100.00;99825.25;1745888;82;21505;-67
2022/09/23 08:17:28;;;;;;;6.05;3.77;;;;;;;11.84;100.00;99826.52;1745804;82;21581;-68
2022/09/23 08:19:55;;;;;;;6.20;4.25;;;;;;;12.02;100.00;99823.98;1745892;82;21167;-68
2022/09/23 08:22:21;;;;;;;5.60;4.25;;;;;;;12.10;100.00;99823.13;1746094;82;21105;-69
2022/09/23 08:24:48;;;;;;;6.50;3.90;;;;;;;12.14;100.00;99826.02;1745957;82;21048;-67
2022/09/23 08:27:14;;;;;;;6.35;4.87;;;;;;;12.18;100.00;99824.95;1746439;82;21564;-69
2022/09/23 08:29:41;;;;;;;5.05;4.08;;;;;;;12.27;100.00;99823.19;1745915;82;21088;-69
2022/09/23 08:32:08;;;;;;;5.47;4.58;;;;;;;12.43;100.00;99814.52;1771342;80;21131;-68
2022/09/23 08:34:34;;;;;;;5.00;4.28;;;;;;;12.66;100.00;99823.94;1776770;80;21009;-68
2022/09/23 08:37:01;;;;;;;7.47;4.95;;;;;;;12.88;100.00;99820.56;1776537;80;21132;-66
2022/09/23 08:39:27;;;;;;;6.00;4.67;;;;;;;13.10;100.00;99817.67;1776758;80;21041;-67
2022/09/23 08:42:20;;;;;;;5.80;4.42;;;;;;;13.29;100.00;99822.02;1776648;80;21564;-69
2022/09/23 08:44:54;;;;;;;6.72;4.90;;;;;;;13.44;100.00;99821.21;1776687;80;22036;-68
2022/09/23 08:47:26;;;;;;;5.97;4.83;;;;;;;13.62;100.00;99812.28;1776410;80;21052;-68
2022/09/23 08:50:06;;;;;;;8.98;5.37;;;;;;;13.75;100.00;99818.20;1776415;80;21017;-67
2022/09/23 08:52:51;;;;;;;8.73;5.47;;;;;;;13.85;100.00;99814.13;1776626;80;21166;-68
2022/09/23 08:55:22;;;;;;;6.58;4.83;;;;;;;13.95;100.00;99810.50;1763085;80;21037;-68
2022/09/23 08:58:05;;;;;;;5.42;4.70;;;;;;;14.03;100.00;99807.81;1745479;82;21188;-68
2022/09/23 09:00:39;;;;;;;5.65;4.45;;;;;;;14.08;100.00;99803.58;1745416;82;21041;-68
2022/09/23 09:03:22;;;;;;;7.40;5.15;;;;;;;14.11;100.00;99806.03;1745272;82;21104;-68
2022/09/23 09:05:51;;;;;;;6.83;5.20;;;;;;;14.37;100.00;99809.83;1745586;82;21025;-69
2022/09/23 09:08:31;;;;;;;7.85;5.50;;;;;;;14.82;100.00;99807.27;1745699;82;21088;-68
2022/09/23 09:10:59;;;;;;;6.47;5.65;;;;;;;15.09;100.00;99798.09;1746013;82;21109;-69
2022/09/23 09:13:34;;;;;;;6.85;5.03;;;;;;;15.30;100.00;99802.11;1745454;82;21080;-68
2022/09/23 09:16:25;;;;;;;5.10;4.40;;;;;;;15.44;100.00;99801.73;1745938;82;21009;-68
2022/09/23 09:18:54;;;;;;;5.62;4.67;;;;;;;15.66;100.00;99804.72;1745919;82;21073;-68
2022/09/23 09:21:30;;;;;;;6.12;4.22;;;;;;;15.92;100.00;99806.24;1746054;82;21045;-68
2022/09/23 09:23:58;;;;;;;8.95;4.72;;;;;;;16.13;100.00;99808.83;1745957;82;21109;-68
2022/09/23 09:26:31;;;;;;;5.12;4.00;;;;;;;16.52;100.00;99797.84;1745953;82;20970;-70
2022/09/23 09:29:07;;;;;;;5.90;4.20;;;;;;;17.08;100.00;99794.12;1745817;82;21084;-68
2022/09/23 09:31:44;;;;;;;5.40;4.20;;;;;;;17.11;100.00;99790.75;1745759;82;21040;-66
2022/09/23 09:34:27;;;;;;;4.67;3.67;;;;;;;17.25;100.00;99793.77;1719118;82;21616;-68
2022/09/23 09:37:13;;;;;;;6.45;3.83;;;;;;;17.35;100.00;99792.67;1745877;82;21198;-68
2022/09/23 09:39:40;;;;;;;5.55;4.05;;;;;;;17.22;97.71;99792.67;1745729;82;21496;-68
2022/09/23 09:42:09;;;;;;;12.55;3.98;;;;;;;16.93;99.42;99793.34;1745897;82;21068;-67
2022/09/23 09:44:44;;;;;;;5.72;4.03;;;;;;;16.65;100.00;99796.53;1719079;82;21060;-68
2022/09/23 09:47:37;;;;;;;5.05;4.10;;;;;;;16.32;100.00;99801.82;1745567;82;21002;-67
2022/09/23 09:50:08;;;;;;;5.40;4.67;;;;;;;15.96;100.00;99798.43;1745966;82;21077;-68
2022/09/23 09:52:35;;;;;;;6.22;4.45;;;;;;;15.50;100.00;99796.02;1745777;82;21032;-68
2022/09/23 09:55:27;;;;;;;7.87;5.00;;;;;;;15.13;100.00;99790.34;1756653;80;21091;-68
2022/09/23 09:58:04;;;;;;;6.22;4.72;;;;;;;14.79;100.00;99787.11;1776704;80;21021;-68
2022/09/23 10:00:38;;;;;;;7.70;5.22;;;;;;;14.40;100.00;99787.16;1775046;80;21111;-68
2022/09/23 10:03:20;;;;;;;6.90;4.75;;;;;;;14.22;100.00;99798.81;1774477;80;21152;-68
2022/09/23 10:05:48;;;;;;;;;;;;;;;14.05;100.00;99793.14;1777313;80;21605;-70
2022/09/23 10:08:36;;;;;;;6.58;5.20;;;;;;;13.95;100.00;99791.48;1774756;80;20554;-69
2022/09/23 10:11:15;;;;;;;8.38;4.60;;;;;;;13.87;100.00;99787.08;1774541;80;21045;-68
2022/09/23 10:14:16;;;;;;;7.03;4.90;;;;;;;13.85;100.00;99788.98;1774365;80;21041;-69
2022/09/23 10:16:49;;;;;;;6.42;5.28;;;;;;;13.82;100.00;99789.14;1774542;80;21139;-70
2022/09/23 10:19:28;;;;;;;7.70;5.08;;;;;;;13.89;100.00;99785.68;1772431;80;21036;-69
2022/09/23 10:21:59;;;;;;;6.58;4.67;;;;;;;13.85;100.00;99783.70;1774553;80;21926;-69
2022/09/23 10:24:31;;;;;;;7.22;5.08;;;;;;;13.83;100.00;99781.59;1775060;80;21040;-69
2022/09/23 10:27:07;;;;;;;7.45;4.90;;;;;;;13.87;100.00;99779.14;1774517;80;21084;-68
2022/09/23 10:29:47;;;;;;;7.58;4.83;;;;;;;13.94;100.00;99779.20;1774799;80;21270;-68
2022/09/23 10:32:38;;;;;;;6.37;5.00;;;;;;;14.00;100.00;99781.48;1774205;80;21052;-68
2022/09/23 10:35:13;;;;;;;6.03;4.80;;;;;;;14.12;100.00;99777.75;1774445;80;21520;-69
2022/09/23 10:37:56;;;;;;;6.92;4.95;;;;;;;14.27;100.00;99784.35;1774598;80;21064;-69
2022/09/23 10:47:11;;;;;;;4.25;3.50;;;;;;;14.57;100.00;99784.02;1774132;80;20978;-69
2022/09/23 10:50:13;;;;;;;5.58;4.08;;;;;;;14.50;100.00;99789.27;1774688;80;21044;-68
2022/09/23 10:52:57;;;;;;;6.90;4.65;;;;;;;14.51;100.00;99784.34;1774818;80;21058;-68
2022/09/23 10:55:47;;;;;;;4.83;4.33;;;;;;;14.43;100.00;99777.70;1775984;80;21068;-68
2022/09/23 10:58:49;;;;;;;5.60;4.92;;;;;;;14.38;100.00;99773.14;1776627;80;21187;-68
2022/09/23 11:01:51;;;;;;;7.65;5.67;;;;;;;14.35;100.00;99769.33;1770904;80;21061;-67
2022/09/23 11:04:40;;;;;;;6.17;5.20;;;;;;;14.35;100.00;99766.67;1770706;80;21660;-69
2022/09/23 11:07:40;;;;;;;5.87;3.83;;;;;;;14.33;100.00;99767.72;1771077;80;21568;-68
2022/09/23 11:10:54;;;;;;;5.83;4.67;;;;;;;14.26;100.00;99769.41;1770912;81;21533;-68
2022/09/23 11:13:51;;;;;;;5.87;4.22;;;;;;;14.34;100.00;99772.09;1770905;81;21850;-68
2022/09/23 11:20:29;;;;;;;6.20;4.30;;;;;;;14.36;100.00;99768.41;1770441;81;21041;-68
2022/09/23 11:23:23;;;;;;;5.90;3.30;;;;;;;14.47;100.00;99775.25;1770696;80;21557;-68
2022/09/23 11:26:21;;;;;;;3.35;3.05;;;;;;;14.57;100.00;99766.31;1770544;81;21112;-69
2022/09/23 11:29:03;;;;;;;4.62;3.33;;;;;;;14.68;100.00;99771.83;1770826;81;21274;-69
2022/09/23 11:31:47;;;;;;;4.40;3.12;;;;;;;14.85;100.00;99765.50;1770444;81;21029;-67
2022/09/23 11:34:52;;;;;;;5.75;2.92;;;;;;;15.06;100.00;99763.34;1754997;80;21088;-66
2022/09/23 11:37:32;;;;;;;3.75;2.95;;;;;;;15.23;100.00;99755.69;1770679;80;21049;-69
2022/09/23 11:40:22;;;;;;;5.72;3.00;;;;;;;15.53;100.00;99749.41;1770766;81;21057;-68
2022/09/23 11:43:28;;;;;;;6.50;3.00;;;;;;;15.77;100.00;99750.13;1771038;80;21487;-67
2022/09/23 11:46:13;;;;;;;5.37;3.65;;;;;;;15.95;100.00;99752.92;1770815;80;21088;-67
2022/09/23 11:49:14;;;;;;;3.05;2.75;;;;;;;16.21;100.00;99747.69;1770994;81;21021;-69
2022/09/23 11:52:19;;;;;;;2.55;2.35;;;;;;;16.61;100.00;99746.33;1770940;81;21041;-68
2022/09/23 11:55:02;;;;;;;3.27;2.27;;;;;;;17.12;100.00;99741.08;1764171;80;21037;-68
2022/09/23 11:57:42;;;;;;;2.10;1.82;;;;;;;17.48;97.26;99745.56;1740260;82;21731;-68
2022/09/23 12:00:16;;;;;;;1.72;1.40;;;;;;;17.85;92.03;99742.08;1741054;82;21100;-67
2022/09/23 12:03:05;;;;;;;2.55;1.50;;;;;;;18.15;84.75;99746.49;1745740;82;21111;-68
2022/09/23 12:05:41;;;;;;;2.47;1.90;;;;;;;18.27;74.25;99737.18;1745821;82;21013;-68
2022/09/23 12:08:25;;;;;;;3.08;2.67;;;;;;;18.24;75.19;99742.27;1745622;82;21080;-69
2022/09/23 12:11:19;;;;;;;6.08;2.02;;;;;;;18.14;74.90;99743.44;1745940;82;21944;-68
2022/09/23 12:13:53;;;;;;;3.92;2.40;;;;;;;17.89;69.32;99748.89;1745749;82;21043;-68